createdAt,value
2022-11-07T00:00:25.982Z,70.72
2022-11-07T00:02:52.454Z,70.56
2022-11-07T00:05:18.862Z,70.39
2022-11-07T00:07:45.304Z,70.15
2022-11-07T00:10:11.644Z,70.04
2022-11-07T00:12:38.157Z,70.00
2022-11-07T00:15:06.237Z,69.71
2022-11-07T00:17:32.626Z,69.43
2022-11-07T00:19:59.085Z,69.27
2022-11-07T00:22:25.630Z,69.19
2022-11-07T00:24:52.259Z,69.00
2022-11-07T00:27:19.778Z,69.10
2022-11-07T00:29:46.352Z,69.43
2022-11-07T00:32:12.692Z,69.23
2022-11-07T00:34:39.059Z,69.27
2022-11-07T00:37:05.495Z,69.46
2022-11-07T00:39:32.104Z,69.36
2022-11-07T00:41:58.551Z,69.28
2022-11-07T00:44:24.946Z,69.37
2022-11-07T00:46:51.323Z,69.30
2022-11-07T00:49:17.692Z,69.32
2022-11-07T00:51:44.105Z,69.17
2022-11-07T00:54:10.726Z,69.15
2022-11-07T00:56:37.298Z,69.23
2022-11-07T00:59:03.811Z,69.14
2022-11-07T01:01:33.323Z,69.14
2022-11-07T01:04:18.352Z,68.94
2022-11-07T01:06:46.623Z,69.10
2022-11-07T01:09:21.256Z,69.29
2022-11-07T01:11:48.703Z,69.31
2022-11-07T01:14:18.647Z,69.16
2022-11-07T01:16:45.057Z,69.09
2022-11-07T01:19:11.615Z,69.17
2022-11-07T01:21:39.830Z,69.22
2022-11-07T01:24:08.340Z,69.09
2022-11-07T01:26:36.810Z,69.08
2022-11-07T01:29:03.733Z,69.10
2022-11-07T01:31:31.782Z,69.02
2022-11-07T01:33:59.630Z,69.13
2022-11-07T01:36:26.972Z,69.17
2022-11-07T01:38:53.829Z,69.12
2022-11-07T01:41:25.400Z,69.38
2022-11-07T01:43:54.270Z,69.39
2022-11-07T01:46:22.378Z,69.46
2022-11-07T01:49:06.598Z,69.58
2022-11-07T01:51:39.193Z,69.62
2022-11-07T01:54:08.079Z,69.59
2022-11-07T01:56:39.194Z,69.61
2022-11-07T01:59:06.814Z,69.46
2022-11-07T02:01:33.504Z,69.47
2022-11-07T02:04:00.756Z,69.56
2022-11-07T02:06:37.493Z,69.53
2022-11-07T02:09:04.380Z,69.52
2022-11-07T02:11:31.506Z,69.61
2022-11-07T02:13:57.932Z,69.47
2022-11-07T02:16:24.421Z,69.58
2022-11-07T02:18:50.926Z,69.89
2022-11-07T02:21:47.618Z,69.82
2022-11-07T02:24:27.005Z,69.63
2022-11-07T02:26:55.979Z,69.53
2022-11-07T02:29:24.524Z,69.79
2022-11-07T02:32:05.774Z,69.86
2022-11-07T02:34:32.174Z,69.72
2022-11-07T02:37:00.771Z,69.75
2022-11-07T02:39:27.331Z,69.70
2022-11-07T02:41:55.651Z,69.75
2022-11-07T02:44:22.479Z,69.77
2022-11-07T02:46:49.509Z,69.77
2022-11-07T02:49:15.926Z,69.78
2022-11-07T02:51:42.317Z,69.96
2022-11-07T02:54:08.807Z,69.78
2022-11-07T02:56:35.436Z,69.96
2022-11-07T02:59:02.172Z,69.83
2022-11-07T03:01:28.979Z,70.17
2022-11-07T03:03:55.444Z,69.91
2022-11-07T03:06:24.643Z,69.90
2022-11-07T03:08:51.668Z,69.68
2022-11-07T03:11:21.243Z,69.84
2022-11-07T03:13:49.836Z,69.71
2022-11-07T03:16:18.406Z,69.84
2022-11-07T03:18:44.805Z,69.77
2022-11-07T03:21:11.171Z,69.87
2022-11-07T03:23:37.689Z,69.67
2022-11-07T03:26:04.733Z,69.67
2022-11-07T03:28:31.603Z,69.73
2022-11-07T03:31:02.169Z,70.04
2022-11-07T03:33:29.893Z,69.89
2022-11-07T03:35:56.517Z,69.84
2022-11-07T03:38:22.997Z,70.08
2022-11-07T03:40:49.455Z,70.03
2022-11-07T03:43:16.344Z,70.38
2022-11-07T03:45:43.115Z,70.61
2022-11-07T03:48:09.462Z,70.41
2022-11-07T03:50:35.906Z,70.57
2022-11-07T03:53:02.302Z,70.60
2022-11-07T03:55:28.643Z,70.85
2022-11-07T03:57:54.999Z,70.70
2022-11-07T04:00:21.844Z,70.76
2022-11-07T04:02:48.282Z,70.46
2022-11-07T04:05:14.803Z,70.67
2022-11-07T04:07:41.165Z,70.85
2022-11-07T04:10:07.739Z,70.87
2022-11-07T04:12:52.797Z,70.76
2022-11-07T04:15:37.658Z,71.00
2022-11-07T04:18:04.064Z,71.00
2022-11-07T04:20:30.476Z,70.79
2022-11-07T04:22:56.917Z,70.82
2022-11-07T04:25:43.424Z,70.86
2022-11-07T04:28:09.777Z,70.99
2022-11-07T04:30:36.173Z,70.97
2022-11-07T04:33:03.207Z,71.08
2022-11-07T04:35:32.376Z,71.18
2022-11-07T04:38:00.109Z,70.83
2022-11-07T04:40:27.922Z,70.97
2022-11-07T04:42:54.774Z,71.35
2022-11-07T04:45:21.152Z,71.24
2022-11-07T04:47:47.763Z,71.47
2022-11-07T04:50:17.238Z,71.87
2022-11-07T04:52:44.444Z,71.88
2022-11-07T04:55:18.836Z,72.54
2022-11-07T04:57:45.594Z,72.25
2022-11-07T05:00:12.572Z,72.79
2022-11-07T05:02:39.016Z,73.03
2022-11-07T05:05:06.098Z,73.11
2022-11-07T05:07:32.431Z,72.91
2022-11-07T05:09:58.817Z,73.19
2022-11-07T05:12:25.205Z,72.81
2022-11-07T05:14:51.593Z,72.88
2022-11-07T05:17:18.093Z,72.70
2022-11-07T05:19:44.715Z,72.57
2022-11-07T05:22:30.157Z,72.69
2022-11-07T05:24:56.537Z,72.68
2022-11-07T05:27:24.046Z,72.66
2022-11-07T05:29:50.734Z,72.55
2022-11-07T05:32:17.298Z,72.76
2022-11-07T05:34:43.756Z,72.78
2022-11-07T05:37:20.707Z,72.61
2022-11-07T05:39:49.925Z,73.06
2022-11-07T05:42:20.322Z,73.11
2022-11-07T05:44:46.834Z,73.35
2022-11-07T05:47:13.199Z,73.64
2022-11-07T05:49:39.702Z,73.96
2022-11-07T05:52:06.117Z,74.17
2022-11-07T05:54:33.168Z,74.15
2022-11-07T05:56:59.529Z,74.18
2022-11-07T05:59:25.916Z,74.17
2022-11-07T06:01:53.491Z,74.77
2022-11-07T06:04:20.067Z,74.91
2022-11-07T06:06:46.503Z,74.50
2022-11-07T06:09:12.905Z,75.14
2022-11-07T06:11:39.387Z,75.22
2022-11-07T06:14:05.961Z,75.16
2022-11-07T06:16:32.536Z,75.36
2022-11-07T06:18:58.884Z,75.24
2022-11-07T06:21:25.325Z,75.14
2022-11-07T06:23:51.909Z,75.45
2022-11-07T06:26:18.283Z,75.53
2022-11-07T06:28:44.741Z,75.46
2022-11-07T06:31:11.401Z,75.35
2022-11-07T06:33:37.827Z,75.31
2022-11-07T06:36:06.624Z,75.29
2022-11-07T06:38:33.265Z,75.50
2022-11-07T06:41:11.505Z,76.00
2022-11-07T06:43:38.686Z,75.67
2022-11-07T06:46:08.409Z,76.24
2022-11-07T06:48:34.876Z,76.10
2022-11-07T06:51:03.494Z,76.25
2022-11-07T06:53:29.981Z,75.98
2022-11-07T06:55:59.813Z,76.37
2022-11-07T06:58:26.333Z,76.00
2022-11-07T07:00:53.554Z,76.21
2022-11-07T07:03:20.040Z,76.24
2022-11-07T07:05:46.440Z,76.09
2022-11-07T07:08:14.072Z,76.49
2022-11-07T07:10:43.619Z,76.63
2022-11-07T07:13:10.423Z,76.19
2022-11-07T07:15:49.918Z,76.06
2022-11-07T07:18:16.966Z,75.79
2022-11-07T07:20:43.351Z,75.38
2022-11-07T07:23:09.755Z,75.48
2022-11-07T07:25:36.150Z,75.18
2022-11-07T07:28:02.518Z,75.10
2022-11-07T07:30:28.879Z,75.07
2022-11-07T07:32:55.235Z,74.94
2022-11-07T07:35:22.218Z,74.59
2022-11-07T07:37:52.397Z,74.53
2022-11-07T07:40:20.081Z,74.08
2022-11-07T07:42:47.034Z,73.86
2022-11-07T07:45:15.491Z,74.08
2022-11-07T07:47:42.338Z,74.12
2022-11-07T07:50:10.855Z,74.34
2022-11-07T07:52:37.648Z,74.44
2022-11-07T07:55:04.924Z,74.32
2022-11-07T07:57:31.279Z,74.27
2022-11-07T07:59:57.671Z,73.99
2022-11-07T08:02:24.075Z,74.08
2022-11-07T08:04:50.525Z,73.56
2022-11-07T08:07:17.116Z,73.33
2022-11-07T08:09:43.485Z,73.00
2022-11-07T08:12:09.838Z,72.94
2022-11-07T08:14:36.685Z,72.67
2022-11-07T08:17:03.593Z,72.74
2022-11-07T08:19:29.964Z,72.52
2022-11-07T08:21:56.363Z,72.22
2022-11-07T08:24:22.914Z,72.19
2022-11-07T08:26:49.379Z,72.15
2022-11-07T08:29:15.897Z,71.76
2022-11-07T08:31:42.556Z,71.62
2022-11-07T08:34:08.974Z,71.62
2022-11-07T08:36:35.655Z,71.53
2022-11-07T08:39:02.187Z,71.10
2022-11-07T08:41:28.659Z,70.86
2022-11-07T08:43:55.017Z,70.91
2022-11-07T08:46:21.368Z,70.80
2022-11-07T08:48:47.853Z,70.48
2022-11-07T08:51:14.223Z,70.37
2022-11-07T08:53:40.597Z,70.40
2022-11-07T08:56:09.155Z,70.42
2022-11-07T08:58:36.820Z,70.19
2022-11-07T09:01:10.272Z,69.74
2022-11-07T09:03:45.962Z,69.75
2022-11-07T09:06:12.984Z,69.29
2022-11-07T09:08:40.844Z,69.27
2022-11-07T09:11:07.507Z,68.53
2022-11-07T09:13:34.499Z,68.52
2022-11-07T09:16:03.228Z,68.52
2022-11-07T09:18:30.029Z,67.87
2022-11-07T09:20:57.712Z,67.88
2022-11-07T09:23:24.321Z,67.22
2022-11-07T09:25:50.814Z,66.70
2022-11-07T09:28:17.227Z,66.36
2022-11-07T09:30:43.681Z,66.64
2022-11-07T09:33:10.083Z,66.95
2022-11-07T09:35:36.456Z,67.46
2022-11-07T09:38:02.909Z,66.81
2022-11-07T09:40:43.535Z,66.70
2022-11-07T09:43:42.682Z,66.63
2022-11-07T09:46:27.473Z,65.40
2022-11-07T09:49:14.466Z,65.14
2022-11-07T09:51:45.636Z,64.33
2022-11-07T09:54:20.488Z,64.24
2022-11-07T09:56:47.004Z,63.54
2022-11-07T09:59:25.741Z,63.27
2022-11-07T10:01:52.475Z,62.99
2022-11-07T10:04:26.102Z,62.56
2022-11-07T10:07:09.163Z,62.99
2022-11-07T10:09:58.698Z,62.61
2022-11-07T10:12:45.806Z,61.99
2022-11-07T10:15:26.921Z,62.43
2022-11-07T10:17:58.394Z,62.58
2022-11-07T10:20:33.218Z,62.84
2022-11-07T10:23:22.669Z,63.06
2022-11-07T10:26:10.426Z,63.63
2022-11-07T10:28:52.749Z,64.26
2022-11-07T10:31:19.566Z,64.44
2022-11-07T10:33:56.741Z,65.28
2022-11-07T10:36:31.338Z,65.65
2022-11-07T10:38:58.091Z,65.31
2022-11-07T10:41:31.616Z,66.02
2022-11-07T10:44:02.345Z,65.48
2022-11-07T10:46:41.813Z,65.86
2022-11-07T10:49:18.870Z,65.50
2022-11-07T10:51:45.360Z,65.29
2022-11-07T10:54:31.344Z,65.11
2022-11-07T10:57:05.564Z,64.40
2022-11-07T10:59:36.579Z,64.50
2022-11-07T11:02:19.698Z,64.37
2022-11-07T11:04:54.973Z,64.02
2022-11-07T11:07:28.507Z,64.13
2022-11-07T11:09:57.849Z,63.67
2022-11-07T11:12:32.233Z,63.55
2022-11-07T11:15:05.009Z,63.49
2022-11-07T11:17:31.582Z,63.50
2022-11-07T11:19:58.060Z,63.52
2022-11-07T11:22:25.844Z,63.35
2022-11-07T11:25:14.868Z,63.79
2022-11-07T11:27:41.654Z,63.29
2022-11-07T11:30:15.283Z,63.76
2022-11-07T11:33:06.014Z,63.92
2022-11-07T11:35:41.877Z,64.08
2022-11-07T11:38:27.639Z,64.25
2022-11-07T11:41:10.574Z,64.23
2022-11-07T11:43:46.551Z,64.71
2022-11-07T11:46:29.975Z,64.76
2022-11-07T11:49:09.562Z,64.91
2022-11-07T11:51:43.220Z,65.05
2022-11-07T11:54:12.237Z,64.98
2022-11-07T11:56:51.306Z,65.32
2022-11-07T11:59:52.327Z,65.20
2022-11-07T12:02:24.625Z,65.18
2022-11-07T12:05:09.930Z,64.97
2022-11-07T12:08:04.256Z,65.17
2022-11-07T12:10:55.038Z,65.06
2022-11-07T12:13:30.929Z,65.39
2022-11-07T12:16:08.548Z,65.67
2022-11-07T12:19:10.380Z,65.70
2022-11-07T12:21:48.657Z,66.37
2022-11-07T12:24:39.527Z,66.33
2022-11-07T12:27:24.116Z,66.23
2022-11-07T12:30:10.191Z,66.46
2022-11-07T12:33:02.699Z,66.78
2022-11-07T12:35:54.829Z,66.97
2022-11-07T12:38:55.007Z,67.18
2022-11-07T12:41:44.942Z,67.40
2022-11-07T12:44:17.041Z,67.40
2022-11-07T12:46:58.347Z,67.22
2022-11-07T12:49:43.068Z,67.38
2022-11-07T12:52:24.953Z,67.74
2022-11-07T12:55:00.323Z,67.76
2022-11-07T12:57:36.566Z,67.79
2022-11-07T13:00:29.685Z,67.37
2022-11-07T13:03:05.609Z,67.43
2022-11-07T13:05:46.936Z,67.63
2022-11-07T13:08:40.681Z,67.34
2022-11-07T13:11:25.729Z,67.53
2022-11-07T13:14:01.289Z,67.67
2022-11-07T13:16:30.337Z,67.54
2022-11-07T13:19:12.064Z,67.51
2022-11-07T13:21:42.832Z,68.01
2022-11-07T13:24:21.671Z,67.45
2022-11-07T13:26:48.546Z,66.56
2022-11-07T13:29:33.398Z,66.79
2022-11-07T13:32:15.982Z,66.88
2022-11-07T13:34:50.823Z,68.11
2022-11-07T13:37:21.539Z,69.06
2022-11-07T13:39:51.692Z,69.43
2022-11-07T13:42:18.716Z,69.48
2022-11-07T13:44:53.632Z,70.41
2022-11-07T13:47:32.360Z,70.71
2022-11-07T13:50:07.757Z,71.02
2022-11-07T13:52:54.331Z,71.38
2022-11-07T13:55:25.496Z,71.40
2022-11-07T13:58:06.899Z,71.96
2022-11-07T14:00:34.806Z,72.20
2022-11-07T14:03:01.548Z,72.26
2022-11-07T14:05:33.082Z,72.46
2022-11-07T14:08:12.464Z,72.97
2022-11-07T14:10:49.116Z,72.92
2022-11-07T14:13:39.665Z,73.24
2022-11-07T14:16:23.656Z,73.28
2022-11-07T14:19:27.823Z,73.00
2022-11-07T14:21:55.658Z,72.99
2022-11-07T14:24:28.032Z,73.38
2022-11-07T14:27:07.401Z,73.56
2022-11-07T14:29:34.078Z,73.13
2022-11-07T14:32:02.710Z,73.49
2022-11-07T14:34:29.348Z,73.73
2022-11-07T14:37:01.110Z,73.69
2022-11-07T14:39:30.148Z,73.83
2022-11-07T14:41:58.890Z,73.90
2022-11-07T14:44:53.876Z,74.12
2022-11-07T14:47:25.352Z,73.90
2022-11-07T14:49:53.006Z,73.96
2022-11-07T14:52:25.274Z,74.72
2022-11-07T14:55:20.673Z,75.30
2022-11-07T14:57:47.717Z,75.08
2022-11-07T15:00:17.208Z,75.72
2022-11-07T15:02:47.404Z,75.90
2022-11-07T15:05:27.916Z,76.26
2022-11-07T15:07:56.226Z,76.00
2022-11-07T15:10:30.095Z,76.41
2022-11-07T15:13:03.034Z,76.95
2022-11-07T15:15:32.467Z,76.85
2022-11-07T15:18:07.064Z,77.19
2022-11-07T15:20:36.607Z,77.17
2022-11-07T15:23:28.102Z,77.45
2022-11-07T15:26:11.481Z,77.61
2022-11-07T15:28:51.348Z,77.67
2022-11-07T15:31:29.698Z,77.87
2022-11-07T15:33:58.650Z,76.99
2022-11-07T15:36:25.833Z,77.16
2022-11-07T15:38:54.025Z,77.31
2022-11-07T15:41:20.961Z,77.45
2022-11-07T15:43:47.434Z,77.21
2022-11-07T15:46:51.367Z,77.34
2022-11-07T15:49:38.526Z,77.27
2022-11-07T15:52:10.538Z,76.60
2022-11-07T15:54:50.018Z,77.07
2022-11-07T15:57:20.685Z,77.01
2022-11-07T15:59:54.561Z,76.49
2022-11-07T16:02:33.288Z,76.35
2022-11-07T16:05:00.522Z,76.27
2022-11-07T16:07:29.320Z,76.00
2022-11-07T16:10:07.542Z,76.22
2022-11-07T16:12:42.755Z,75.51
2022-11-07T16:15:16.918Z,75.71
2022-11-07T16:17:47.721Z,75.18
2022-11-07T16:20:26.048Z,75.33
2022-11-07T16:22:56.574Z,75.15
2022-11-07T16:25:26.180Z,74.91
2022-11-07T16:27:56.569Z,74.87
2022-11-07T16:30:25.897Z,74.83
2022-11-07T16:33:01.945Z,74.48
2022-11-07T16:35:37.603Z,74.25
2022-11-07T16:38:19.320Z,74.39
2022-11-07T16:41:06.496Z,74.40
2022-11-07T16:43:38.368Z,73.72
2022-11-07T16:46:05.649Z,73.91
2022-11-07T16:48:32.288Z,73.75
2022-11-07T16:50:58.711Z,73.72
2022-11-07T16:53:25.916Z,73.64
2022-11-07T16:56:00.807Z,74.03
2022-11-07T16:58:29.692Z,73.82
2022-11-07T17:00:58.920Z,73.65
2022-11-07T17:03:31.486Z,73.67
2022-11-07T17:06:00.414Z,73.68
2022-11-07T17:08:34.878Z,73.52
2022-11-07T17:11:01.272Z,73.22
2022-11-07T17:13:27.641Z,73.11
2022-11-07T17:15:54.789Z,72.90
2022-11-07T17:18:23.538Z,73.10
2022-11-07T17:20:51.955Z,72.95
2022-11-07T17:23:19.722Z,72.92
2022-11-07T17:25:50.772Z,73.14
2022-11-07T17:28:17.630Z,72.96
2022-11-07T17:30:44.285Z,72.71
2022-11-07T17:33:10.813Z,72.76
2022-11-07T17:35:37.767Z,72.53
2022-11-07T17:38:04.244Z,72.73
2022-11-07T17:40:32.534Z,72.73
2022-11-07T17:42:59.618Z,72.91
2022-11-07T17:45:27.113Z,73.14
2022-11-07T17:47:53.995Z,73.12
2022-11-07T17:50:21.714Z,73.46
2022-11-07T17:52:48.402Z,73.70
2022-11-07T17:55:15.118Z,74.16
2022-11-07T17:57:43.339Z,74.64
2022-11-07T18:00:19.050Z,75.15
2022-11-07T18:02:47.967Z,75.34
2022-11-07T18:05:17.284Z,75.59
2022-11-07T18:07:44.651Z,75.73
2022-11-07T18:10:15.653Z,76.11
2022-11-07T18:12:43.513Z,76.25
2022-11-07T18:15:13.301Z,75.92
2022-11-07T18:17:40.890Z,76.10
2022-11-07T18:20:09.192Z,76.53
2022-11-07T18:22:37.666Z,76.41
2022-11-07T18:25:08.421Z,76.85
2022-11-07T18:27:34.953Z,76.81
2022-11-07T18:30:02.921Z,76.65
2022-11-07T18:32:34.623Z,76.73
2022-11-07T18:35:04.787Z,76.92
2022-11-07T18:37:31.746Z,76.97
2022-11-07T18:39:58.132Z,77.14
2022-11-07T18:42:24.535Z,77.25
2022-11-07T18:44:51.014Z,77.04
2022-11-07T18:47:17.402Z,77.04
2022-11-07T18:49:44.440Z,76.99
2022-11-07T18:52:10.852Z,76.80
2022-11-07T18:54:37.493Z,76.69
2022-11-07T18:57:03.939Z,76.28
2022-11-07T18:59:30.282Z,76.03
2022-11-07T19:01:56.757Z,76.38
2022-11-07T19:04:23.429Z,76.04
2022-11-07T19:06:57.020Z,75.83
2022-11-07T19:09:25.887Z,75.74
2022-11-07T19:11:52.477Z,75.41
2022-11-07T19:14:19.545Z,75.43
2022-11-07T19:16:46.062Z,75.24
2022-11-07T19:19:12.523Z,75.22
2022-11-07T19:21:43.583Z,74.91
2022-11-07T19:24:10.162Z,74.93
2022-11-07T19:26:38.413Z,74.91
2022-11-07T19:29:05.711Z,74.41
2022-11-07T19:31:34.748Z,74.86
2022-11-07T19:34:01.617Z,74.63
2022-11-07T19:36:28.141Z,74.99
2022-11-07T19:38:54.627Z,75.11
2022-11-07T19:41:21.092Z,75.38
2022-11-07T19:43:50.633Z,75.69
2022-11-07T19:46:22.447Z,76.47
2022-11-07T19:48:49.806Z,76.39
2022-11-07T19:51:22.207Z,76.66
2022-11-07T19:53:57.616Z,77.37
2022-11-07T19:56:26.589Z,77.54
2022-11-07T19:58:54.318Z,77.84
2022-11-07T20:01:25.601Z,78.50
2022-11-07T20:03:53.524Z,79.11
2022-11-07T20:06:22.894Z,79.38
2022-11-07T20:08:49.961Z,79.68
2022-11-07T20:11:21.781Z,80.34
2022-11-07T20:13:48.549Z,80.57
2022-11-07T20:16:15.269Z,81.18
2022-11-07T20:18:42.220Z,81.90
2022-11-07T20:21:13.067Z,82.80
2022-11-07T20:23:41.036Z,82.94
2022-11-07T20:26:13.809Z,83.83
2022-11-07T20:28:40.732Z,83.38
2022-11-07T20:31:37.443Z,84.17
2022-11-07T20:34:07.658Z,84.74
2022-11-07T20:36:34.319Z,85.36
2022-11-07T20:39:01.779Z,85.09
2022-11-07T20:41:28.247Z,85.60
2022-11-07T20:43:55.529Z,85.95
2022-11-07T20:46:22.085Z,85.70
2022-11-07T20:48:48.765Z,86.40
2022-11-07T20:51:19.937Z,86.49
2022-11-07T20:53:50.324Z,86.31
2022-11-07T20:56:18.850Z,86.65
2022-11-07T20:58:46.415Z,86.75
2022-11-07T21:01:21.827Z,86.69
2022-11-07T21:03:48.398Z,86.43
2022-11-07T21:06:15.206Z,86.68
2022-11-07T21:08:44.561Z,86.73
2022-11-07T21:11:12.873Z,86.85
2022-11-07T21:13:40.052Z,86.86
2022-11-07T21:16:06.863Z,86.61
2022-11-07T21:18:33.502Z,86.86
2022-11-07T21:21:12.379Z,87.11
2022-11-07T21:23:39.069Z,86.68
2022-11-07T21:26:08.520Z,86.75
2022-11-07T21:28:36.029Z,86.51
2022-11-07T21:31:05.396Z,86.62
2022-11-07T21:33:32.519Z,87.13
2022-11-07T21:35:58.982Z,86.87
2022-11-07T21:38:25.422Z,87.03
2022-11-07T21:40:52.845Z,87.28
2022-11-07T21:43:19.879Z,86.97
2022-11-07T21:45:46.458Z,86.94
2022-11-07T21:48:12.787Z,87.01
2022-11-07T21:50:45.083Z,86.92
2022-11-07T21:53:12.070Z,86.58
2022-11-07T21:55:38.520Z,86.69
2022-11-07T21:58:04.898Z,86.24
2022-11-07T22:00:35.766Z,86.43
2022-11-07T22:03:03.624Z,86.10
2022-11-07T22:05:30.006Z,85.90
2022-11-07T22:07:56.741Z,85.13
2022-11-07T22:10:23.222Z,85.18
2022-11-07T22:12:51.204Z,85.02
2022-11-07T22:15:17.711Z,84.74
2022-11-07T22:17:44.109Z,84.60
2022-11-07T22:20:11.400Z,84.38
2022-11-07T22:22:37.778Z,84.13
2022-11-07T22:25:04.802Z,84.10
2022-11-07T22:27:31.223Z,83.81
2022-11-07T22:29:57.816Z,83.49
2022-11-07T22:32:24.205Z,83.34
2022-11-07T22:34:50.666Z,83.15
2022-11-07T22:37:17.085Z,82.79
2022-11-07T22:39:43.467Z,82.29
2022-11-07T22:42:09.821Z,82.25
2022-11-07T22:44:36.348Z,82.43
2022-11-07T22:47:02.821Z,81.99
2022-11-07T22:49:29.394Z,81.71
2022-11-07T22:51:55.821Z,81.63
2022-11-07T22:54:22.277Z,81.24
2022-11-07T22:56:48.630Z,81.19
2022-11-07T22:59:15.025Z,80.94
2022-11-07T23:01:42.577Z,80.97
2022-11-07T23:04:13.898Z,81.23
2022-11-07T23:06:40.502Z,80.27
2022-11-07T23:09:07.038Z,80.29
2022-11-07T23:11:51.073Z,80.02
2022-11-07T23:14:20.719Z,80.00
2022-11-07T23:16:50.788Z,79.81
2022-11-07T23:19:19.808Z,79.22
2022-11-07T23:21:46.823Z,78.87
2022-11-07T23:24:13.657Z,78.61
2022-11-07T23:26:40.798Z,78.56
2022-11-07T23:29:19.137Z,78.30
2022-11-07T23:31:47.461Z,78.10
2022-11-07T23:34:14.534Z,77.70
2022-11-07T23:36:43.967Z,77.54
2022-11-07T23:39:16.619Z,77.66
2022-11-07T23:41:43.615Z,77.32
2022-11-07T23:44:11.283Z,77.18
2022-11-07T23:46:56.433Z,76.85
2022-11-07T23:49:41.675Z,76.79
2022-11-07T23:52:08.292Z,76.67
2022-11-07T23:54:52.924Z,76.42
2022-11-07T23:57:20.317Z,76.08
